EDDV

Hannover

Airport
ICAO code
EDDV
Summary
ICAO Region
EUR
ICAO Territory
Location

Hannover, Germany,

Elevation
183 ft
Coordinates
52° 27' 40" N , 9° 41' 6" E
KCC
Metar
Observation
EDDV 011150Z AUTO 25019G32KT 9999 -SHRA BKN026 FEW///TCU 06/02 Q1011 TEMPO 27020G40KT SHRA BKN014CB
Station
Hannover
Date/Time
2023-02-01 11:50:00
Wind direction
250°
Wind speed
19 kts
Lowest cloud amount
broken clouds
Temperature
6°C
Dew point
2°C
Humidity
75%
QNH
1011 hPa
Weather condition
light showers rain

Description

International airport serving Hannover, Germany.

Climatology

Temperate Marine climate/Oceanic climate (Köppen climate classification Cfb) - Moderately cool summer and comparatively warm winter.

Runways

Designator Length Width Surface Rops
09C/27C 780 23 ASP Yes/Yes
09R/27L 2340 45 CON Yes/Yes
09L/27R 3800 45 CON Yes/Yes

Airport map

Aerial View

Airport accidents

SKYbrary Partners:

Safety knowledge contributed by: